createdAt,value
2022-09-12T00:00:15.923Z,15.52
2022-09-12T00:02:43.084Z,16.30
2022-09-12T00:05:10.176Z,11.73
2022-09-12T00:07:37.254Z,13.60
2022-09-12T00:10:05.186Z,13.77
2022-09-12T00:12:32.225Z,15.52
2022-09-12T00:14:59.302Z,16.33
2022-09-12T00:17:26.449Z,14.70
2022-09-12T00:19:53.705Z,16.88
2022-09-12T00:22:20.755Z,13.18
2022-09-12T00:24:47.921Z,16.33
2022-09-12T00:27:15.387Z,17.00
2022-09-12T00:29:42.694Z,16.05
2022-09-12T00:32:09.851Z,19.08
2022-09-12T00:34:37.223Z,19.23
2022-09-12T00:37:04.786Z,17.88
2022-09-12T00:39:31.977Z,19.70
2022-09-12T00:41:59.210Z,19.33
2022-09-12T00:44:26.246Z,12.57
2022-09-12T00:46:59.447Z,13.85
2022-09-12T00:49:31.164Z,16.55
2022-09-12T00:52:16.125Z,19.77
2022-09-12T00:54:51.320Z,16.63
2022-09-12T00:57:19.704Z,14.45
2022-09-12T01:00:01.607Z,14.05
2022-09-12T01:02:30.794Z,13.63
2022-09-12T01:04:57.911Z,17.92
2022-09-12T01:07:25.067Z,18.85
2022-09-12T01:09:52.275Z,12.93
2022-09-12T01:12:19.525Z,14.90
2022-09-12T01:14:46.664Z,18.27
2022-09-12T01:17:15.454Z,14.85
2022-09-12T01:19:42.436Z,14.85
2022-09-12T01:22:38.995Z,17.48
2022-09-12T01:25:35.320Z,15.25
2022-09-12T01:28:14.252Z,13.93
2022-09-12T01:30:44.465Z,17.88
2022-09-12T01:33:20.699Z,15.82
2022-09-12T01:36:26.226Z,14.80
2022-09-12T01:39:01.611Z,11.32
2022-09-12T01:41:37.514Z,9.32
2022-09-12T01:44:19.845Z,15.45
2022-09-12T01:47:10.289Z,11.65
2022-09-12T01:49:40.272Z,16.33
2022-09-12T01:52:23.331Z,14.73
2022-09-12T01:55:09.954Z,11.73
2022-09-12T01:57:48.462Z,10.07
2022-09-12T02:00:15.979Z,10.32
2022-09-12T02:03:02.830Z,13.20
2022-09-12T02:06:03.650Z,15.82
2022-09-12T02:08:38.796Z,14.80
2022-09-12T02:11:11.985Z,17.52
2022-09-12T02:13:48.458Z,13.77
2022-09-12T02:16:25.414Z,13.07
2022-09-12T02:19:00.667Z,14.10
2022-09-12T02:21:33.014Z,14.20
2022-09-12T02:24:03.108Z,13.90
2022-09-12T02:26:35.747Z,15.52
2022-09-12T02:29:04.732Z,13.00
2022-09-12T02:31:42.126Z,11.50
2022-09-12T02:34:44.857Z,10.98
2022-09-12T02:37:26.010Z,11.93
2022-09-12T02:39:55.451Z,17.45
2022-09-12T02:42:23.446Z,18.40
2022-09-12T02:44:52.939Z,16.65
2022-09-12T02:47:27.508Z,16.08
2022-09-12T02:49:57.141Z,16.70
2022-09-12T02:52:24.703Z,16.98
2022-09-12T02:54:52.475Z,19.27
2022-09-12T02:57:23.201Z,18.52
2022-09-12T02:59:53.698Z,19.60
2022-09-12T03:02:30.663Z,22.77
2022-09-12T03:05:22.962Z,18.52
2022-09-12T03:08:27.456Z,18.83
2022-09-12T03:11:11.403Z,20.98
2022-09-12T03:14:13.044Z,18.95
2022-09-12T03:17:12.416Z,17.77
2022-09-12T03:19:51.477Z,20.85
2022-09-12T03:22:50.994Z,20.40
2022-09-12T03:25:25.209Z,21.58
2022-09-12T03:28:01.473Z,17.67
2022-09-12T03:30:29.029Z,21.38
2022-09-12T03:32:56.112Z,22.30
2022-09-12T03:35:25.025Z,23.55
2022-09-12T03:37:53.233Z,20.17
2022-09-12T03:40:20.618Z,27.58
2022-09-12T03:42:47.750Z,32.67
2022-09-12T03:45:16.726Z,26.63
2022-09-12T03:47:43.736Z,26.80
2022-09-12T03:50:11.363Z,32.00
2022-09-12T03:52:38.713Z,31.02
2022-09-12T03:55:06.359Z,29.98
2022-09-12T03:57:33.451Z,30.83
2022-09-12T04:00:02.109Z,29.55
2022-09-12T04:02:40.055Z,28.23
2022-09-12T04:05:07.324Z,26.17
2022-09-12T04:07:34.438Z,35.75
2022-09-12T04:10:01.511Z,28.00
2022-09-12T04:12:30.486Z,38.72
2022-09-12T04:17:06.472Z,37.33
2022-09-12T04:19:33.617Z,31.48
2022-09-12T04:22:00.507Z,30.08
2022-09-12T04:24:27.365Z,29.15
2022-09-12T04:26:54.320Z,27.02
2022-09-12T04:29:21.218Z,28.67
2022-09-12T04:31:48.045Z,31.83
2022-09-12T04:34:16.436Z,32.65
2022-09-12T04:36:43.309Z,28.67
2022-09-12T04:39:10.469Z,27.30
2022-09-12T04:41:38.338Z,25.52
2022-09-12T04:44:06.634Z,28.02
2022-09-12T04:46:35.448Z,27.52
2022-09-12T04:49:02.655Z,33.05
2022-09-12T04:51:31.130Z,29.65
2022-09-12T04:53:59.677Z,27.75
2022-09-12T04:56:27.060Z,29.15
2022-09-12T04:58:54.030Z,27.77
2022-09-12T05:01:22.135Z,26.42
2022-09-12T05:03:49.704Z,21.00
2022-09-12T05:06:17.943Z,25.20
2022-09-12T05:08:45.038Z,28.50
2022-09-12T05:11:13.200Z,24.23
2022-09-12T05:13:40.841Z,33.83
2022-09-12T05:16:08.325Z,33.05
2022-09-12T05:18:36.020Z,27.33
2022-09-12T05:21:04.316Z,30.27
2022-09-12T05:23:31.651Z,21.77
2022-09-12T05:25:59.674Z,23.40
2022-09-12T05:28:29.813Z,29.98
2022-09-12T05:31:03.814Z,29.83
2022-09-12T05:33:31.153Z,20.52
2022-09-12T05:35:57.886Z,23.05
2022-09-12T05:38:25.232Z,23.98
2022-09-12T05:40:52.225Z,25.02
2022-09-12T05:43:20.387Z,22.17
2022-09-12T05:45:47.136Z,23.40
2022-09-12T05:48:13.956Z,19.95
2022-09-12T05:50:42.584Z,24.13
2022-09-12T05:53:09.408Z,21.40
2022-09-12T05:55:36.854Z,20.08
2022-09-12T05:58:03.697Z,25.20
2022-09-12T06:00:33.557Z,24.67
2022-09-12T06:03:01.573Z,18.02
2022-09-12T06:05:28.541Z,27.90
2022-09-12T06:07:55.414Z,25.35
2022-09-12T06:10:23.147Z,20.33
2022-09-12T06:12:50.062Z,24.42
2022-09-12T06:15:17.104Z,23.13
2022-09-12T06:17:46.395Z,19.15
2022-09-12T06:20:15.110Z,22.25
2022-09-12T06:22:42.513Z,17.50
2022-09-12T06:25:09.425Z,23.17
2022-09-12T06:27:37.283Z,27.13
2022-09-12T06:30:04.345Z,22.15
2022-09-12T06:32:31.759Z,24.08
2022-09-12T06:34:58.689Z,18.30
2022-09-12T06:37:25.466Z,18.45
2022-09-12T06:39:52.350Z,18.35
2022-09-12T06:42:20.144Z,19.42
2022-09-12T06:44:56.120Z,21.63
2022-09-12T06:47:23.684Z,15.85
2022-09-12T06:49:51.085Z,22.95
2022-09-12T06:52:18.207Z,16.17
2022-09-12T06:54:45.179Z,18.60
2022-09-12T06:57:12.004Z,19.27
2022-09-12T06:59:38.812Z,16.63
2022-09-12T07:02:05.814Z,19.83
2022-09-12T07:04:34.780Z,17.10
2022-09-12T07:07:01.558Z,19.48
2022-09-12T07:09:29.791Z,14.75
2022-09-12T07:11:56.647Z,16.88
2022-09-12T07:14:23.520Z,15.20
2022-09-12T07:16:50.290Z,14.93
2022-09-12T07:19:17.060Z,13.32
2022-09-12T07:21:44.676Z,15.35
2022-09-12T07:24:11.651Z,17.98
2022-09-12T07:26:40.200Z,19.20
2022-09-12T07:29:34.726Z,17.45
2022-09-12T07:31:54.911Z,17.30
2022-09-12T07:34:21.966Z,16.23
2022-09-12T07:36:48.823Z,14.85
2022-09-12T07:39:15.633Z,16.60
2022-09-12T07:41:42.529Z,18.83
2022-09-12T07:44:09.663Z,22.35
2022-09-12T07:46:36.608Z,14.25
2022-09-12T07:49:03.470Z,12.85
2022-09-12T07:51:30.874Z,16.15
2022-09-12T07:53:58.145Z,13.70
2022-09-12T07:56:29.630Z,16.48
2022-09-12T07:58:58.961Z,13.20
2022-09-12T08:01:26.435Z,15.65
2022-09-12T08:03:54.320Z,17.45
2022-09-12T08:06:24.137Z,11.10
2022-09-12T08:08:51.680Z,17.03
2022-09-12T08:11:19.518Z,11.68
2022-09-12T08:13:51.685Z,15.38
2022-09-12T08:16:21.897Z,14.20
2022-09-12T08:18:48.919Z,16.08
2022-09-12T08:21:17.073Z,13.90
2022-09-12T08:23:44.451Z,15.10
2022-09-12T08:26:11.847Z,20.25
2022-09-12T08:28:40.553Z,13.20
2022-09-12T08:31:08.406Z,17.98
2022-09-12T08:33:35.518Z,18.13
2022-09-12T08:36:04.643Z,14.30
2022-09-12T08:38:32.089Z,20.27
2022-09-12T08:41:12.016Z,18.45
2022-09-12T08:43:45.633Z,16.47
2022-09-12T08:46:18.618Z,19.95
2022-09-12T08:48:46.456Z,21.05
2022-09-12T08:51:15.303Z,21.35
2022-09-12T08:53:43.359Z,18.92
2022-09-12T08:56:11.997Z,23.75
2022-09-12T08:58:43.497Z,27.45
2022-09-12T09:01:10.737Z,25.02
2022-09-12T09:03:40.767Z,24.05
2022-09-12T09:06:18.373Z,25.10
2022-09-12T09:08:47.990Z,26.58
2022-09-12T09:11:15.007Z,27.27
2022-09-12T09:14:04.905Z,28.55
2022-09-12T09:16:35.169Z,28.00
2022-09-12T09:19:08.486Z,28.03
2022-09-12T09:22:04.895Z,26.30
2022-09-12T09:24:40.386Z,28.65
2022-09-12T09:27:36.758Z,28.85
2022-09-12T09:30:01.126Z,30.70
2022-09-12T09:32:33.808Z,33.57
2022-09-12T09:35:01.756Z,32.55
2022-09-12T09:37:30.394Z,29.90
2022-09-12T09:40:20.708Z,30.23
2022-09-12T09:42:50.597Z,34.05
2022-09-12T09:45:19.551Z,31.53
2022-09-12T09:47:49.713Z,28.60
2022-09-12T09:50:16.872Z,30.90
2022-09-12T09:52:44.077Z,27.08
2022-09-12T09:55:15.380Z,32.70
2022-09-12T09:57:43.009Z,31.73
2022-09-12T10:00:28.227Z,30.00
2022-09-12T10:03:21.289Z,27.52
2022-09-12T10:05:55.304Z,29.17
2022-09-12T10:08:26.514Z,26.95
2022-09-12T10:10:54.140Z,29.13
2022-09-12T10:13:27.416Z,26.27
2022-09-12T10:15:58.667Z,25.80
2022-09-12T10:18:54.805Z,30.75
2022-09-12T10:21:41.322Z,24.67
2022-09-12T10:24:14.316Z,30.90
2022-09-12T10:26:41.329Z,30.20
2022-09-12T10:29:13.566Z,27.23
2022-09-12T10:31:46.310Z,26.55
2022-09-12T10:34:34.790Z,27.98
2022-09-12T10:37:06.788Z,31.25
2022-09-12T10:39:35.998Z,26.77
2022-09-12T10:42:03.203Z,25.55
2022-09-12T10:44:31.291Z,25.80
2022-09-12T10:46:59.078Z,23.42
2022-09-12T10:49:27.508Z,27.17
2022-09-12T10:51:54.843Z,27.73
2022-09-12T10:54:23.163Z,28.60
2022-09-12T10:56:49.924Z,22.65
2022-09-12T10:59:25.836Z,27.35
2022-09-12T11:02:05.222Z,25.73
2022-09-12T11:04:58.194Z,27.45
2022-09-12T11:07:31.116Z,25.27
2022-09-12T11:10:03.798Z,26.85
2022-09-12T11:12:49.334Z,24.65
2022-09-12T11:15:17.224Z,25.77
2022-09-12T11:18:00.983Z,27.17
2022-09-12T11:20:27.966Z,23.15
2022-09-12T11:22:54.678Z,25.45
2022-09-12T11:25:44.420Z,26.30
2022-09-12T11:28:24.152Z,23.67
2022-09-12T11:31:02.379Z,24.13
2022-09-12T11:33:42.828Z,29.80
2022-09-12T11:36:28.848Z,26.23
2022-09-12T11:39:09.155Z,23.02
2022-09-12T11:41:37.689Z,32.55
2022-09-12T11:44:10.536Z,22.92
2022-09-12T11:46:38.495Z,24.15
2022-09-12T11:49:14.156Z,28.48
2022-09-12T11:51:50.254Z,24.35
2022-09-12T11:54:35.559Z,29.20
2022-09-12T11:57:14.739Z,24.17
2022-09-12T11:59:47.590Z,24.73
2022-09-12T12:02:19.792Z,27.95
2022-09-12T12:04:59.770Z,24.02
2022-09-12T12:07:26.781Z,27.53
2022-09-12T12:09:55.819Z,23.52
2022-09-12T12:12:25.042Z,20.13
2022-09-12T12:14:53.335Z,24.60
2022-09-12T12:17:22.115Z,24.35
2022-09-12T12:20:00.069Z,23.75
2022-09-12T12:22:31.637Z,28.98
2022-09-12T12:24:58.495Z,31.15
2022-09-12T12:27:43.924Z,26.92
2022-09-12T12:30:29.152Z,26.80
2022-09-12T12:33:03.252Z,24.58
2022-09-12T12:35:40.443Z,28.75
2022-09-12T12:38:25.930Z,28.27
2022-09-12T12:40:52.871Z,27.15
2022-09-12T12:43:32.050Z,27.45
2022-09-12T12:46:02.055Z,25.00
2022-09-12T12:48:30.578Z,20.52
2022-09-12T12:51:15.613Z,20.23
2022-09-12T12:53:42.596Z,21.85
2022-09-12T12:56:26.373Z,25.40
2022-09-12T12:59:00.833Z,26.88
2022-09-12T13:01:28.369Z,30.15
2022-09-12T13:04:11.345Z,21.40
2022-09-12T13:06:43.283Z,24.90
2022-09-12T13:09:25.226Z,20.15
2022-09-12T13:12:08.205Z,24.08
2022-09-12T13:14:47.437Z,21.00
2022-09-12T13:17:20.330Z,22.77
2022-09-12T13:19:47.423Z,20.13
2022-09-12T13:22:14.676Z,18.58
2022-09-12T13:24:49.294Z,19.83
2022-09-12T13:27:19.323Z,17.60
2022-09-12T13:29:46.255Z,15.60
2022-09-12T13:32:13.787Z,23.95
2022-09-12T13:34:48.745Z,19.30
2022-09-12T13:37:27.503Z,18.02
2022-09-12T13:40:14.362Z,14.57
2022-09-12T13:42:48.663Z,17.42
2022-09-12T13:45:18.872Z,18.42
2022-09-12T13:47:47.348Z,16.45
2022-09-12T13:50:22.983Z,12.80
2022-09-12T13:52:55.062Z,13.50
2022-09-12T13:55:25.482Z,12.55
2022-09-12T13:57:59.985Z,14.50
2022-09-12T14:00:28.340Z,15.48
2022-09-12T14:03:16.102Z,12.68
2022-09-12T14:05:48.019Z,16.95
2022-09-12T14:08:15.575Z,13.90
2022-09-12T14:10:43.970Z,11.77
2022-09-12T14:13:13.005Z,13.63
2022-09-12T14:15:40.537Z,14.30
2022-09-12T14:18:09.082Z,12.77
2022-09-12T14:20:37.895Z,13.95
2022-09-12T14:23:14.209Z,12.98
2022-09-12T14:25:41.704Z,13.40
2022-09-12T14:28:13.620Z,14.88
2022-09-12T14:30:41.043Z,13.07
2022-09-12T14:33:10.787Z,13.95
2022-09-12T14:35:42.727Z,15.18
2022-09-12T14:38:19.300Z,14.70
2022-09-12T14:40:51.875Z,12.80
2022-09-12T14:43:21.813Z,16.98
2022-09-12T14:46:15.007Z,10.93
2022-09-12T14:48:51.186Z,10.60
2022-09-12T14:51:26.494Z,14.70
2022-09-12T14:53:53.314Z,11.32
2022-09-12T14:56:36.756Z,9.65
2022-09-12T14:59:22.362Z,11.75
2022-09-12T15:01:49.180Z,7.72
2022-09-12T15:04:36.193Z,11.50
2022-09-12T15:07:16.799Z,13.88
2022-09-12T15:09:47.255Z,14.65
2022-09-12T15:14:41.373Z,14.52
2022-09-12T15:17:08.394Z,11.32
2022-09-12T15:19:35.695Z,14.40
2022-09-12T15:22:02.612Z,14.20
2022-09-12T15:24:29.514Z,9.35
2022-09-12T15:26:56.905Z,12.38
2022-09-12T15:29:24.127Z,8.25
2022-09-12T15:31:51.431Z,14.75
2022-09-12T15:34:21.107Z,8.70
2022-09-12T15:36:48.509Z,12.38
2022-09-12T15:39:15.625Z,13.48
2022-09-12T15:41:43.036Z,11.85
2022-09-12T15:44:12.318Z,12.38
2022-09-12T15:46:39.381Z,10.25
2022-09-12T15:49:07.430Z,12.88
2022-09-12T15:51:36.121Z,12.18
2022-09-12T15:54:04.564Z,11.88
2022-09-12T15:56:31.855Z,12.07
2022-09-12T15:59:00.166Z,11.70
2022-09-12T16:01:28.526Z,12.55
2022-09-12T16:03:56.905Z,9.18
2022-09-12T16:06:24.340Z,16.20
2022-09-12T16:08:51.148Z,8.32
2022-09-12T16:11:21.316Z,10.02
2022-09-12T16:13:49.137Z,10.52
2022-09-12T16:16:16.495Z,9.02
2022-09-12T16:18:43.798Z,10.02
2022-09-12T16:21:14.916Z,10.07
2022-09-12T16:23:43.636Z,11.27
2022-09-12T16:26:13.792Z,9.27
2022-09-12T16:28:41.041Z,10.40
2022-09-12T16:31:09.031Z,9.77
2022-09-12T16:33:37.680Z,13.98
2022-09-12T16:36:06.433Z,10.23
2022-09-12T16:38:34.839Z,10.52
2022-09-12T16:41:02.602Z,9.10
2022-09-12T16:43:29.995Z,12.70
2022-09-12T16:46:14.262Z,7.47
2022-09-12T16:48:50.936Z,10.55
2022-09-12T16:51:20.473Z,7.72
2022-09-12T16:53:47.570Z,10.82
2022-09-12T16:56:14.752Z,8.65
2022-09-12T16:58:44.523Z,13.82
2022-09-12T17:01:13.377Z,8.57
2022-09-12T17:03:40.770Z,9.63
2022-09-12T17:06:09.491Z,8.77
2022-09-12T17:08:38.241Z,10.88
2022-09-12T17:11:06.899Z,9.57
2022-09-12T17:14:00.175Z,8.68
2022-09-12T17:16:22.120Z,9.48
2022-09-12T17:18:50.012Z,12.95
2022-09-12T17:21:17.940Z,9.77
2022-09-12T17:23:45.331Z,8.82
2022-09-12T17:26:13.524Z,9.32
2022-09-12T17:28:41.172Z,8.77
2022-09-12T17:31:09.436Z,11.32
2022-09-12T17:33:37.057Z,10.32
2022-09-12T17:36:05.158Z,10.40
2022-09-12T17:38:33.261Z,11.55
2022-09-12T17:41:07.478Z,8.15
2022-09-12T17:43:35.702Z,8.30
2022-09-12T17:46:06.019Z,9.35
2022-09-12T17:48:33.512Z,9.43
2022-09-12T17:51:07.050Z,16.27
2022-09-12T17:53:34.719Z,12.93
2022-09-12T17:56:03.603Z,11.90
2022-09-12T17:58:31.455Z,12.15
2022-09-12T18:01:20.911Z,14.15
2022-09-12T18:03:48.789Z,12.38
2022-09-12T18:06:16.306Z,13.23
2022-09-12T18:08:43.212Z,19.88
2022-09-12T18:11:10.336Z,12.32
2022-09-12T18:13:44.237Z,18.30
2022-09-12T18:16:12.563Z,19.15
2022-09-12T18:18:40.563Z,14.70
2022-09-12T18:21:08.448Z,13.85
2022-09-12T18:23:35.727Z,13.70
2022-09-12T18:26:04.252Z,16.15
2022-09-12T18:28:35.209Z,12.52
2022-09-12T18:33:47.102Z,20.77
2022-09-12T18:36:15.133Z,15.45
2022-09-12T18:38:42.483Z,16.27
2022-09-12T18:41:10.944Z,20.02
2022-09-12T18:43:37.856Z,16.05
2022-09-12T18:46:05.696Z,13.43
2022-09-12T18:48:33.360Z,14.23
2022-09-12T18:51:08.292Z,13.40
2022-09-12T18:53:37.100Z,15.98
2022-09-12T18:56:06.375Z,20.00
2022-09-12T18:58:33.921Z,20.58
2022-09-12T19:01:00.962Z,20.35
2022-09-12T19:03:28.046Z,24.25
2022-09-12T19:05:55.057Z,19.05
2022-09-12T19:08:22.143Z,22.25
2022-09-12T19:10:54.629Z,19.38
2022-09-12T19:13:21.493Z,19.05
2022-09-12T19:15:48.436Z,22.17
2022-09-12T19:18:16.158Z,20.70
2022-09-12T19:20:43.294Z,24.75
2022-09-12T19:23:10.401Z,14.63
2022-09-12T19:25:37.400Z,16.17
2022-09-12T19:28:04.405Z,17.15
2022-09-12T19:30:31.295Z,17.50
2022-09-12T19:35:43.221Z,18.40
2022-09-12T19:38:10.272Z,17.63
2022-09-12T19:40:38.145Z,16.95
2022-09-12T19:43:05.127Z,16.05
2022-09-12T19:45:32.117Z,16.42
2022-09-12T19:47:59.044Z,17.15
2022-09-12T19:50:26.230Z,13.05
2022-09-12T19:52:53.063Z,14.13
2022-09-12T19:55:20.062Z,12.57
2022-09-12T19:57:46.967Z,10.93
2022-09-12T20:00:14.277Z,10.00
2022-09-12T20:02:41.242Z,11.85
2022-09-12T20:05:08.454Z,11.50
2022-09-12T20:07:35.396Z,12.30
2022-09-12T20:10:02.317Z,13.95
2022-09-12T20:12:30.381Z,12.60
2022-09-12T20:14:57.238Z,19.45
2022-09-12T20:17:24.186Z,16.65
2022-09-12T20:19:51.062Z,12.40
2022-09-12T20:22:18.032Z,12.27
2022-09-12T20:24:45.059Z,15.32
2022-09-12T20:27:11.904Z,12.35
2022-09-12T20:29:38.812Z,12.80
2022-09-12T20:32:05.863Z,10.15
2022-09-12T20:34:32.748Z,11.50
2022-09-12T20:36:59.652Z,15.40
2022-09-12T20:39:26.801Z,10.43
2022-09-12T20:41:53.746Z,12.23
2022-09-12T20:44:20.657Z,15.18
2022-09-12T20:46:47.679Z,11.05
2022-09-12T20:49:14.695Z,10.27
2022-09-12T20:51:41.508Z,12.73
2022-09-12T20:54:08.457Z,13.82
2022-09-12T20:56:36.084Z,22.63
2022-09-12T20:59:04.237Z,12.55
2022-09-12T21:01:34.431Z,15.82
2022-09-12T21:04:01.768Z,12.45
2022-09-12T21:06:28.726Z,13.63
2022-09-12T21:08:58.859Z,13.13
2022-09-12T21:11:25.674Z,11.10
2022-09-12T21:13:53.188Z,13.07
2022-09-12T21:16:21.593Z,15.07
2022-09-12T21:18:53.251Z,13.40
2022-09-12T21:21:20.127Z,12.60
2022-09-12T21:23:47.149Z,15.00
2022-09-12T21:26:14.042Z,10.27
2022-09-12T21:28:40.889Z,9.90
2022-09-12T21:31:08.760Z,10.98
2022-09-12T21:33:35.780Z,12.07
2022-09-12T21:36:03.822Z,11.02
2022-09-12T21:38:31.044Z,11.70
2022-09-12T21:41:04.456Z,11.35
2022-09-12T21:43:31.366Z,10.30
2022-09-12T21:46:01.638Z,9.90
2022-09-12T21:48:29.021Z,9.57
2022-09-12T21:50:55.863Z,11.57
2022-09-12T21:53:22.895Z,11.00
2022-09-12T21:55:50.016Z,13.65
2022-09-12T21:58:17.259Z,9.30
2022-09-12T22:00:44.708Z,9.15
2022-09-12T22:03:12.563Z,14.65
2022-09-12T22:05:42.819Z,11.07
2022-09-12T22:08:10.293Z,9.82
2022-09-12T22:10:38.571Z,10.23
2022-09-12T22:13:05.905Z,12.23
2022-09-12T22:15:41.266Z,10.32
2022-09-12T22:18:08.535Z,11.88
2022-09-12T22:20:35.446Z,11.68
2022-09-12T22:23:24.657Z,13.55
2022-09-12T22:25:54.006Z,12.40
2022-09-12T22:28:21.418Z,12.45
2022-09-12T22:30:51.087Z,13.13
2022-09-12T22:33:17.931Z,16.50
2022-09-12T22:35:44.794Z,12.43
2022-09-12T22:38:11.656Z,24.58
2022-09-12T22:40:38.491Z,12.40
2022-09-12T22:43:05.893Z,14.95
2022-09-12T22:45:32.813Z,14.98
2022-09-12T22:48:00.894Z,12.02
2022-09-12T22:50:28.271Z,9.35
2022-09-12T22:52:55.401Z,13.75
2022-09-12T22:55:22.186Z,12.98
2022-09-12T22:57:49.332Z,15.80
2022-09-12T23:00:16.236Z,11.32
2022-09-12T23:02:43.592Z,14.20
2022-09-12T23:05:10.470Z,15.05
2022-09-12T23:07:37.599Z,14.00
2022-09-12T23:10:04.718Z,15.30
2022-09-12T23:12:32.129Z,13.00
2022-09-12T23:14:58.962Z,12.50
2022-09-12T23:17:25.919Z,17.55
2022-09-12T23:19:52.787Z,15.02
2022-09-12T23:22:19.660Z,12.25
2022-09-12T23:24:46.955Z,13.80
2022-09-12T23:27:13.787Z,13.00
2022-09-12T23:29:40.685Z,10.85
2022-09-12T23:32:07.560Z,13.43
2022-09-12T23:34:34.497Z,15.50
2022-09-12T23:37:01.352Z,16.15
2022-09-12T23:39:28.187Z,14.10
2022-09-12T23:41:55.716Z,17.30
2022-09-12T23:44:22.624Z,18.60
2022-09-12T23:46:49.500Z,16.27
2022-09-12T23:49:16.342Z,19.08
2022-09-12T23:51:43.219Z,20.65
2022-09-12T23:54:10.207Z,16.70
2022-09-12T23:56:37.343Z,18.92
2022-09-12T23:59:04.133Z,17.42
